sensor_id;sensor_type;location;lat;lon;timestamp;pressure;altitude;pressure_sealevel;temperature
61703;BMP280;47622;47.726;3.298;2023-02-15T00:01:34;100098.59;;;0.84
61703;BMP280;47622;47.726;3.298;2023-02-15T00:04:00;100106.50;;;0.89
61703;BMP280;47622;47.726;3.298;2023-02-15T00:06:26;100106.13;;;0.85
61703;BMP280;47622;47.726;3.298;2023-02-15T00:08:53;100101.78;;;0.86
61703;BMP280;47622;47.726;3.298;2023-02-15T00:11:19;100098.75;;;0.89
61703;BMP280;47622;47.726;3.298;2023-02-15T00:14:10;100096.34;;;0.94
61703;BMP280;47622;47.726;3.298;2023-02-15T00:16:37;100092.59;;;0.90
61703;BMP280;47622;47.726;3.298;2023-02-15T00:19:03;100086.72;;;0.76
61703;BMP280;47622;47.726;3.298;2023-02-15T00:21:30;100083.56;;;0.67
61703;BMP280;47622;47.726;3.298;2023-02-15T00:23:57;100080.41;;;0.65
61703;BMP280;47622;47.726;3.298;2023-02-15T00:26:22;100082.59;;;0.55
61703;BMP280;47622;47.726;3.298;2023-02-15T00:28:48;100075.50;;;0.44
61703;BMP280;47622;47.726;3.298;2023-02-15T00:31:14;100084.44;;;0.35
61703;BMP280;47622;47.726;3.298;2023-02-15T00:33:40;100077.28;;;0.37
61703;BMP280;47622;47.726;3.298;2023-02-15T00:36:07;100082.03;;;0.40
61703;BMP280;47622;47.726;3.298;2023-02-15T00:38:34;100088.78;;;0.41
61703;BMP280;47622;47.726;3.298;2023-02-15T00:41:02;100078.66;;;0.46
61703;BMP280;47622;47.726;3.298;2023-02-15T00:43:29;100077.28;;;0.43
61703;BMP280;47622;47.726;3.298;2023-02-15T00:45:55;100082.41;;;0.50
61703;BMP280;47622;47.726;3.298;2023-02-15T00:48:21;100074.06;;;0.48
61703;BMP280;47622;47.726;3.298;2023-02-15T00:50:50;100078.06;;;0.44
61703;BMP280;47622;47.726;3.298;2023-02-15T00:53:15;100074.06;;;0.48
61703;BMP280;47622;47.726;3.298;2023-02-15T00:55:41;100070.53;;;0.49
61703;BMP280;47622;47.726;3.298;2023-02-15T00:58:09;100071.13;;;0.44
61703;BMP280;47622;47.726;3.298;2023-02-15T01:00:35;100067.56;;;0.39
61703;BMP280;47622;47.726;3.298;2023-02-15T01:03:01;100072.53;;;0.34
61703;BMP280;47622;47.726;3.298;2023-02-15T01:05:27;100069.97;;;0.34
61703;BMP280;47622;47.726;3.298;2023-02-15T01:07:52;100072.59;;;0.27
61703;BMP280;47622;47.726;3.298;2023-02-15T01:10:18;100068.59;;;0.24
61703;BMP280;47622;47.726;3.298;2023-02-15T01:12:43;100066.25;;;0.16
61703;BMP280;47622;47.726;3.298;2023-02-15T01:15:09;100075.75;;;0.09
61703;BMP280;47622;47.726;3.298;2023-02-15T01:17:35;100078.75;;;0.06
61703;BMP280;47622;47.726;3.298;2023-02-15T01:20:01;100081.34;;;0.06
61703;BMP280;47622;47.726;3.298;2023-02-15T01:22:26;100078.75;;;0.06
61703;BMP280;47622;47.726;3.298;2023-02-15T01:24:52;100081.34;;;0.06
61703;BMP280;47622;47.726;3.298;2023-02-15T01:27:18;100070.03;;;0.07
61703;BMP280;47622;47.726;3.298;2023-02-15T01:29:43;100073.59;;;0.06
61703;BMP280;47622;47.726;3.298;2023-02-15T01:32:09;100074.56;;;0.05
61703;BMP280;47622;47.726;3.298;2023-02-15T01:34:35;100078.75;;;-0.01
61703;BMP280;47622;47.726;3.298;2023-02-15T01:37:00;100069.63;;;-0.03
61703;BMP280;47622;47.726;3.298;2023-02-15T01:39:26;100069.84;;;-0.05
61703;BMP280;47622;47.726;3.298;2023-02-15T01:41:52;100071.00;;;-0.01
61703;BMP280;47622;47.726;3.298;2023-02-15T01:47:17;100067.44;;;-0.06
61703;BMP280;47622;47.726;3.298;2023-02-15T01:49:44;100068.25;;;0.01
61703;BMP280;47622;47.726;3.298;2023-02-15T01:52:14;100069.06;;;-0.05
61703;BMP280;47622;47.726;3.298;2023-02-15T01:54:44;100066.47;;;-0.05
61703;BMP280;47622;47.726;3.298;2023-02-15T01:57:17;100070.22;;;-0.01
61703;BMP280;47622;47.726;3.298;2023-02-15T01:59:46;100073.00;;;0.04
61703;BMP280;47622;47.726;3.298;2023-02-15T02:02:14;100064.25;;;0.05
61703;BMP280;47622;47.726;3.298;2023-02-15T02:04:47;100073.59;;;0.06
61703;BMP280;47622;47.726;3.298;2023-02-15T02:07:16;100059.91;;;-0.01
61703;BMP280;47622;47.726;3.298;2023-02-15T02:09:43;100067.84;;;0.04
61703;BMP280;47622;47.726;3.298;2023-02-15T02:12:09;100061.09;;;0.03
61703;BMP280;47622;47.726;3.298;2023-02-15T02:14:36;100063.47;;;0.05
61703;BMP280;47622;47.726;3.298;2023-02-15T02:17:26;100063.09;;;0.01
61703;BMP280;47622;47.726;3.298;2023-02-15T02:33:31;100063.91;;;-0.05
61703;BMP280;47622;47.726;3.298;2023-02-15T02:36:15;100064.69;;;-0.05
61703;BMP280;47622;47.726;3.298;2023-02-15T02:41:50;100057.16;;;-0.13
61703;BMP280;47622;47.726;3.298;2023-02-15T02:44:44;100057.97;;;-0.25
61703;BMP280;47622;47.726;3.298;2023-02-15T02:47:46;100055.38;;;-0.25
61703;BMP280;47622;47.726;3.298;2023-02-15T02:50:17;100045.22;;;-0.34
61703;BMP280;47622;47.726;3.298;2023-02-15T02:52:48;100053.59;;;-0.32
61703;BMP280;47622;47.726;3.298;2023-02-15T03:00:48;100051.56;;;-0.36
61703;BMP280;47622;47.726;3.298;2023-02-15T03:03:21;100054.94;;;-0.36
61703;BMP280;47622;47.726;3.298;2023-02-15T03:05:52;100058.69;;;-0.45
61703;BMP280;47622;47.726;3.298;2023-02-15T03:08:20;100053.97;;;-0.48
61703;BMP280;47622;47.726;3.298;2023-02-15T03:10:51;100048.41;;;-0.58
61703;BMP280;47622;47.726;3.298;2023-02-15T03:13:17;100052.72;;;-0.59
61703;BMP280;47622;47.726;3.298;2023-02-15T03:15:43;100055.13;;;-0.57
61703;BMP280;47622;47.726;3.298;2023-02-15T03:18:35;100050.34;;;-0.60
61703;BMP280;47622;47.726;3.298;2023-02-15T03:21:04;100046.00;;;-0.66
61703;BMP280;47622;47.726;3.298;2023-02-15T03:23:30;100047.56;;;-0.65
61703;BMP280;47622;47.726;3.298;2023-02-15T03:26:04;100055.91;;;-0.63
61703;BMP280;47622;47.726;3.298;2023-02-15T03:28:50;100052.16;;;-0.54
61703;BMP280;47622;47.726;3.298;2023-02-15T03:31:20;100053.94;;;-0.41
61703;BMP280;47622;47.726;3.298;2023-02-15T03:33:54;100051.97;;;-0.33
61703;BMP280;47622;47.726;3.298;2023-02-15T03:36:24;100052.81;;;-0.25
61703;BMP280;47622;47.726;3.298;2023-02-15T03:39:08;100051.22;;;-0.20
61703;BMP280;47622;47.726;3.298;2023-02-15T03:41:40;100051.78;;;-0.18
61703;BMP280;47622;47.726;3.298;2023-02-15T03:44:24;100051.59;;;-0.16
61703;BMP280;47622;47.726;3.298;2023-02-15T03:52:14;100050.81;;;-0.10
61703;BMP280;47622;47.726;3.298;2023-02-15T03:54:42;100056.56;;;-0.08
61703;BMP280;47622;47.726;3.298;2023-02-15T03:57:27;100048.81;;;-0.08
61703;BMP280;47622;47.726;3.298;2023-02-15T04:00:24;100050.00;;;0.03
61703;BMP280;47622;47.726;3.298;2023-02-15T04:03:15;100048.78;;;0.18
61703;BMP280;47622;47.726;3.298;2023-02-15T04:05:45;100045.81;;;0.21
61703;BMP280;47622;47.726;3.298;2023-02-15T04:08:11;100042.81;;;0.24
61703;BMP280;47622;47.726;3.298;2023-02-15T04:10:37;100051.97;;;0.27
61703;BMP280;47622;47.726;3.298;2023-02-15T04:13:19;100042.44;;;0.28
61703;BMP280;47622;47.726;3.298;2023-02-15T04:15:45;100043.97;;;0.35
61703;BMP280;47622;47.726;3.298;2023-02-15T04:18:39;100048.34;;;0.35
61703;BMP280;47622;47.726;3.298;2023-02-15T04:21:25;100053.13;;;0.24
61703;BMP280;47622;47.726;3.298;2023-02-15T04:24:10;100050.00;;;0.09
61703;BMP280;47622;47.726;3.298;2023-02-15T04:26:54;100051.78;;;0.02
61703;BMP280;47622;47.726;3.298;2023-02-15T04:29:22;100055.56;;;-0.07
61703;BMP280;47622;47.726;3.298;2023-02-15T04:31:48;100044.06;;;-0.11
61703;BMP280;47622;47.726;3.298;2023-02-15T04:34:14;100054.38;;;-0.05
61703;BMP280;47622;47.726;3.298;2023-02-15T04:36:40;100054.56;;;0.07
61703;BMP280;47622;47.726;3.298;2023-02-15T04:39:06;100056.34;;;0.13
61703;BMP280;47622;47.726;3.298;2023-02-15T04:41:32;100051.19;;;0.13
61703;BMP280;47622;47.726;3.298;2023-02-15T04:43:58;100048.41;;;0.08
61703;BMP280;47622;47.726;3.298;2023-02-15T04:46:26;100050.00;;;0.09
61703;BMP280;47622;47.726;3.298;2023-02-15T04:48:52;100045.63;;;0.03
61703;BMP280;47622;47.726;3.298;2023-02-15T04:51:18;100051.56;;;0.10
61703;BMP280;47622;47.726;3.298;2023-02-15T04:53:43;100052.75;;;0.21
61703;BMP280;47622;47.726;3.298;2023-02-15T04:56:09;100053.56;;;0.21
61703;BMP280;47622;47.726;3.298;2023-02-15T04:58:35;100040.06;;;0.19
61703;BMP280;47622;47.726;3.298;2023-02-15T05:01:02;100048.41;;;0.21
61703;BMP280;47622;47.726;3.298;2023-02-15T05:03:27;100046.78;;;0.20
61703;BMP280;47622;47.726;3.298;2023-02-15T05:05:53;100054.34;;;0.15
61703;BMP280;47622;47.726;3.298;2023-02-15T05:08:19;100039.66;;;0.16
61703;BMP280;47622;47.726;3.298;2023-02-15T05:10:44;100043.44;;;0.13
61703;BMP280;47622;47.726;3.298;2023-02-15T05:13:10;100036.91;;;0.11
61703;BMP280;47622;47.726;3.298;2023-02-15T05:15:36;100032.16;;;0.01
61703;BMP280;47622;47.726;3.298;2023-02-15T05:18:01;100035.56;;;-0.05
61703;BMP280;47622;47.726;3.298;2023-02-15T05:20:27;100037.31;;;-0.12
61703;BMP280;47622;47.726;3.298;2023-02-15T05:22:53;100028.81;;;-0.19
61703;BMP280;47622;47.726;3.298;2023-02-15T05:25:19;100035.78;;;-0.27
61703;BMP280;47622;47.726;3.298;2023-02-15T05:28:03;100035.34;;;-0.37
61703;BMP280;47622;47.726;3.298;2023-02-15T05:30:48;100043.66;;;-0.41
61703;BMP280;47622;47.726;3.298;2023-02-15T05:33:14;100031.38;;;-0.46
61703;BMP280;47622;47.726;3.298;2023-02-15T05:35:40;100040.88;;;-0.40
61703;BMP280;47622;47.726;3.298;2023-02-15T05:38:06;100041.28;;;-0.36
61703;BMP280;47622;47.726;3.298;2023-02-15T05:40:31;100040.06;;;-0.34
61703;BMP280;47622;47.726;3.298;2023-02-15T05:42:57;100044.22;;;-0.33
61703;BMP280;47622;47.726;3.298;2023-02-15T05:45:23;100046.81;;;-0.39
61703;BMP280;47622;47.726;3.298;2023-02-15T05:47:49;100052.38;;;-0.42
61703;BMP280;47622;47.726;3.298;2023-02-15T05:50:14;100048.41;;;-0.45
61703;BMP280;47622;47.726;3.298;2023-02-15T05:52:40;100049.19;;;-0.51
61703;BMP280;47622;47.726;3.298;2023-02-15T05:55:06;100048.41;;;-0.52
61703;BMP280;47622;47.726;3.298;2023-02-15T05:57:34;100048.59;;;-0.46
61703;BMP280;47622;47.726;3.298;2023-02-15T06:00:01;100044.81;;;-0.50
61703;BMP280;47622;47.726;3.298;2023-02-15T06:02:29;100048.59;;;-0.53
61703;BMP280;47622;47.726;3.298;2023-02-15T06:04:55;100063.06;;;-0.52
61703;BMP280;47622;47.726;3.298;2023-02-15T06:07:21;100061.47;;;-0.46
61703;BMP280;47622;47.726;3.298;2023-02-15T06:09:46;100059.13;;;-0.21
61703;BMP280;47622;47.726;3.298;2023-02-15T06:12:12;100063.88;;;-0.18
61703;BMP280;47622;47.726;3.298;2023-02-15T06:14:37;100060.31;;;-0.17
61703;BMP280;47622;47.726;3.298;2023-02-15T06:17:03;100057.56;;;-0.16
61703;BMP280;47622;47.726;3.298;2023-02-15T06:19:28;100062.31;;;-0.13
61703;BMP280;47622;47.726;3.298;2023-02-15T06:21:54;100062.09;;;-0.11
61703;BMP280;47622;47.726;3.298;2023-02-15T06:24:20;100057.94;;;-0.12
61703;BMP280;47622;47.726;3.298;2023-02-15T06:26:45;100066.47;;;-0.12
61703;BMP280;47622;47.726;3.298;2023-02-15T06:29:11;100067.25;;;-0.11
61703;BMP280;47622;47.726;3.298;2023-02-15T06:31:36;100073.00;;;0.04
61703;BMP280;47622;47.726;3.298;2023-02-15T06:34:02;100059.91;;;0.12
61703;BMP280;47622;47.726;3.298;2023-02-15T06:36:28;100074.19;;;0.21
61703;BMP280;47622;47.726;3.298;2023-02-15T06:38:54;100071.41;;;0.23
61703;BMP280;47622;47.726;3.298;2023-02-15T06:41:20;100084.88;;;0.18
61703;BMP280;47622;47.726;3.298;2023-02-15T06:43:46;100074.56;;;0.18
61703;BMP280;47622;47.726;3.298;2023-02-15T06:46:12;100071.00;;;0.19
61703;BMP280;47622;47.726;3.298;2023-02-15T06:48:37;100080.53;;;0.19
61703;BMP280;47622;47.726;3.298;2023-02-15T06:51:03;100085.28;;;0.15
61703;BMP280;47622;47.726;3.298;2023-02-15T06:53:28;100087.66;;;0.10
61703;BMP280;47622;47.726;3.298;2023-02-15T06:56:01;100081.34;;;0.06
61703;BMP280;47622;47.726;3.298;2023-02-15T06:58:28;100088.47;;;0.04
61703;BMP280;47622;47.726;3.298;2023-02-15T07:00:53;100089.44;;;0.03
61703;BMP280;47622;47.726;3.298;2023-02-15T07:03:19;100093.81;;;0.09
61703;BMP280;47622;47.726;3.298;2023-02-15T07:05:45;100090.03;;;0.18
61703;BMP280;47622;47.726;3.298;2023-02-15T07:08:12;100091.16;;;0.36
61703;BMP280;47622;47.726;3.298;2023-02-15T07:10:38;100092.31;;;0.53
61703;BMP280;47622;47.726;3.298;2023-02-15T07:13:04;100097.06;;;0.69
61703;BMP280;47622;47.726;3.298;2023-02-15T07:15:29;100097.38;;;0.93
61703;BMP280;47622;47.726;3.298;2023-02-15T07:17:57;100092.47;;;1.16
61703;BMP280;47622;47.726;3.298;2023-02-15T07:20:23;100098.78;;;1.34
61703;BMP280;47622;47.726;3.298;2023-02-15T07:22:50;100100.22;;;1.48
61703;BMP280;47622;47.726;3.298;2023-02-15T07:25:16;100094.47;;;1.77
61703;BMP280;47622;47.726;3.298;2023-02-15T07:27:42;100111.66;;;2.15
61703;BMP280;47622;47.726;3.298;2023-02-15T07:30:11;100110.22;;;2.37
61703;BMP280;47622;47.726;3.298;2023-02-15T07:32:37;100106.00;;;2.61
61703;BMP280;47622;47.726;3.298;2023-02-15T07:35:23;100105.44;;;2.71
61703;BMP280;47622;47.726;3.298;2023-02-15T07:37:48;100112.94;;;2.79
61703;BMP280;47622;47.726;3.298;2023-02-15T07:40:14;100114.88;;;3.14
61703;BMP280;47622;47.726;3.298;2023-02-15T07:42:39;100113.41;;;3.83
61703;BMP280;47622;47.726;3.298;2023-02-15T07:45:05;100114.53;;;4.34
61703;BMP280;47622;47.726;3.298;2023-02-15T07:47:31;100113.16;;;5.00
61703;BMP280;47622;47.726;3.298;2023-02-15T07:49:56;100127.53;;;5.87
61703;BMP280;47622;47.726;3.298;2023-02-15T07:52:22;100124.78;;;6.86
61703;BMP280;47622;47.726;3.298;2023-02-15T07:54:47;100110.56;;;7.73
61703;BMP280;47622;47.726;3.298;2023-02-15T07:57:13;100114.56;;;8.69
61703;BMP280;47622;47.726;3.298;2023-02-15T07:59:39;100120.84;;;9.03
61703;BMP280;47622;47.726;3.298;2023-02-15T08:02:09;100121.81;;;9.68
61703;BMP280;47622;47.726;3.298;2023-02-15T08:04:35;100110.81;;;9.61
61703;BMP280;47622;47.726;3.298;2023-02-15T08:07:01;100116.00;;;9.71
61703;BMP280;47622;47.726;3.298;2023-02-15T08:09:27;100110.09;;;10.05
61703;BMP280;47622;47.726;3.298;2023-02-15T08:11:52;100116.72;;;10.81
61703;BMP280;47622;47.726;3.298;2023-02-15T08:14:20;100121.34;;;12.13
61703;BMP280;47622;47.726;3.298;2023-02-15T08:16:55;100130.81;;;13.39
61703;BMP280;47622;47.726;3.298;2023-02-15T08:19:24;100135.00;;;14.85
61703;BMP280;47622;47.726;3.298;2023-02-15T08:21:52;100140.25;;;16.07
61703;BMP280;47622;47.726;3.298;2023-02-15T08:24:20;100138.34;;;17.48
61703;BMP280;47622;47.726;3.298;2023-02-15T08:26:47;100154.41;;;17.72
61703;BMP280;47622;47.726;3.298;2023-02-15T08:29:14;100154.16;;;17.98
61703;BMP280;47622;47.726;3.298;2023-02-15T08:31:41;100157.47;;;17.74
61703;BMP280;47622;47.726;3.298;2023-02-15T08:34:08;100162.50;;;17.97
61703;BMP280;47622;47.726;3.298;2023-02-15T08:36:34;100163.34;;;17.59
61703;BMP280;47622;47.726;3.298;2023-02-15T08:39:02;100158.94;;;17.72
61703;BMP280;47622;47.726;3.298;2023-02-15T08:41:32;100165.72;;;18.35
61703;BMP280;47622;47.726;3.298;2023-02-15T08:44:01;100166.75;;;18.22
61703;BMP280;47622;47.726;3.298;2023-02-15T08:46:30;100181.84;;;18.30
61703;BMP280;47622;47.726;3.298;2023-02-15T08:48:57;100174.22;;;18.98
61703;BMP280;47622;47.726;3.298;2023-02-15T08:51:28;100188.56;;;19.34
61703;BMP280;47622;47.726;3.298;2023-02-15T08:53:56;100183.06;;;18.33
61703;BMP280;47622;47.726;3.298;2023-02-15T08:56:25;100186.88;;;17.90
61703;BMP280;47622;47.726;3.298;2023-02-15T08:58:52;100180.06;;;17.80
61703;BMP280;47622;47.726;3.298;2023-02-15T09:01:21;100185.97;;;17.65
61703;BMP280;47622;47.726;3.298;2023-02-15T09:03:49;100189.47;;;17.57
61703;BMP280;47622;47.726;3.298;2023-02-15T09:06:15;100188.94;;;17.84
61703;BMP280;47622;47.726;3.298;2023-02-15T09:08:41;100176.22;;;17.48
61703;BMP280;47622;47.726;3.298;2023-02-15T09:11:09;100184.59;;;18.01
61703;BMP280;47622;47.726;3.298;2023-02-15T09:13:36;100186.44;;;17.08
61703;BMP280;47622;47.726;3.298;2023-02-15T09:16:05;100188.75;;;16.72
61703;BMP280;47622;47.726;3.298;2023-02-15T09:18:33;100196.13;;;17.34
61703;BMP280;47622;47.726;3.298;2023-02-15T09:21:21;100187.00;;;18.59
61703;BMP280;47622;47.726;3.298;2023-02-15T09:23:49;100187.16;;;19.12
61703;BMP280;47622;47.726;3.298;2023-02-15T09:26:17;100189.16;;;19.79
61703;BMP280;47622;47.726;3.298;2023-02-15T09:28:44;100193.19;;;20.17
61703;BMP280;47622;47.726;3.298;2023-02-15T09:31:19;100192.63;;;19.95
61703;BMP280;47622;47.726;3.298;2023-02-15T09:33:46;100187.84;;;20.60
61703;BMP280;47622;47.726;3.298;2023-02-15T09:36:30;100203.75;;;19.85
61703;BMP280;47622;47.726;3.298;2023-02-15T09:41:35;100196.41;;;19.94
61703;BMP280;47622;47.726;3.298;2023-02-15T09:54:52;100188.44;;;18.45
61703;BMP280;47622;47.726;3.298;2023-02-15T09:58:31;100199.16;;;17.74
61703;BMP280;47622;47.726;3.298;2023-02-15T10:00:51;100198.50;;;17.56
61703;BMP280;47622;47.726;3.298;2023-02-15T10:06:15;100205.53;;;17.81
61703;BMP280;47622;47.726;3.298;2023-02-15T10:09:02;100199.47;;;17.51
61703;BMP280;47622;47.726;3.298;2023-02-15T10:12:15;100198.41;;;17.94
61703;BMP280;47622;47.726;3.298;2023-02-15T10:14:51;100205.16;;;18.57
61703;BMP280;47622;47.726;3.298;2023-02-15T10:20:13;100202.94;;;18.59
61703;BMP280;47622;47.726;3.298;2023-02-15T10:22:54;100200.25;;;18.47
61703;BMP280;47622;47.726;3.298;2023-02-15T10:27:49;100201.34;;;17.51
61703;BMP280;47622;47.726;3.298;2023-02-15T10:30:19;100200.44;;;18.63
61703;BMP280;47622;47.726;3.298;2023-02-15T10:33:00;100201.66;;;18.12
61703;BMP280;47622;47.726;3.298;2023-02-15T10:54:49;100204.19;;;16.52
61703;BMP280;47622;47.726;3.298;2023-02-15T10:57:26;100206.66;;;15.88
61703;BMP280;47622;47.726;3.298;2023-02-15T11:07:45;100194.69;;;18.07
61703;BMP280;47622;47.726;3.298;2023-02-15T11:12:50;100185.50;;;19.07
61703;BMP280;47622;47.726;3.298;2023-02-15T11:15:42;100202.97;;;19.57
61703;BMP280;47622;47.726;3.298;2023-02-15T11:21:04;100186.38;;;18.63
61703;BMP280;47622;47.726;3.298;2023-02-15T11:23:32;100194.22;;;18.26
61703;BMP280;47622;47.726;3.298;2023-02-15T11:26:02;100174.59;;;17.35
61703;BMP280;47622;47.726;3.298;2023-02-15T11:28:38;100170.47;;;17.97
61703;BMP280;47622;47.726;3.298;2023-02-15T11:31:18;100181.50;;;17.78
61703;BMP280;47622;47.726;3.298;2023-02-15T11:33:49;100178.81;;;18.52
61703;BMP280;47622;47.726;3.298;2023-02-15T11:36:26;100179.50;;;18.62
61703;BMP280;47622;47.726;3.298;2023-02-15T11:38:59;100175.22;;;18.36
61703;BMP280;47622;47.726;3.298;2023-02-15T11:41:31;100172.66;;;18.73
61703;BMP280;47622;47.726;3.298;2023-02-15T11:44:14;100176.44;;;18.39
61703;BMP280;47622;47.726;3.298;2023-02-15T11:46:41;100171.31;;;17.59
61703;BMP280;47622;47.726;3.298;2023-02-15T11:49:29;100176.78;;;17.83
61703;BMP280;47622;47.726;3.298;2023-02-15T11:51:56;100171.34;;;17.38
61703;BMP280;47622;47.726;3.298;2023-02-15T11:54:29;100181.44;;;17.66
61703;BMP280;47622;47.726;3.298;2023-02-15T11:56:56;100172.34;;;17.46
61703;BMP280;47622;47.726;3.298;2023-02-15T11:59:30;100175.53;;;16.54
61703;BMP280;47622;47.726;3.298;2023-02-15T12:01:57;100168.69;;;15.58
61703;BMP280;47622;47.726;3.298;2023-02-15T12:04:29;100170.19;;;15.51
61703;BMP280;47622;47.726;3.298;2023-02-15T12:09:46;100174.00;;;15.84
61703;BMP280;47622;47.726;3.298;2023-02-15T12:14:52;100170.06;;;17.06
61703;BMP280;47622;47.726;3.298;2023-02-15T12:17:22;100162.84;;;16.77
61703;BMP280;47622;47.726;3.298;2023-02-15T12:19:48;100165.56;;;17.07
61703;BMP280;47622;47.726;3.298;2023-02-15T12:22:24;100159.56;;;17.48
61703;BMP280;47622;47.726;3.298;2023-02-15T12:24:53;100155.59;;;17.54
61703;BMP280;47622;47.726;3.298;2023-02-15T12:27:28;100153.41;;;17.98
61703;BMP280;47622;47.726;3.298;2023-02-15T12:30:01;100147.44;;;17.80
61703;BMP280;47622;47.726;3.298;2023-02-15T12:32:33;100145.19;;;17.70
61703;BMP280;47622;47.726;3.298;2023-02-15T12:35:47;100136.63;;;17.64
61703;BMP280;47622;47.726;3.298;2023-02-15T12:37:56;100143.00;;;17.72
61703;BMP280;47622;47.726;3.298;2023-02-15T12:40:27;100142.22;;;17.71
61703;BMP280;47622;47.726;3.298;2023-02-15T12:42:54;100138.13;;;17.74
61703;BMP280;47622;47.726;3.298;2023-02-15T12:45:24;100143.91;;;17.97
61703;BMP280;47622;47.726;3.298;2023-02-15T12:48:15;100138.22;;;17.65
61703;BMP280;47622;47.726;3.298;2023-02-15T12:50:53;100133.00;;;17.27
61703;BMP280;47622;47.726;3.298;2023-02-15T12:53:35;100143.03;;;17.42
61703;BMP280;47622;47.726;3.298;2023-02-15T12:56:07;100134.97;;;17.09
61703;BMP280;47622;47.726;3.298;2023-02-15T12:58:34;100137.94;;;16.70
61703;BMP280;47622;47.726;3.298;2023-02-15T13:01:22;100121.97;;;16.40
61703;BMP280;47622;47.726;3.298;2023-02-15T13:04:01;100122.00;;;15.88
61703;BMP280;47622;47.726;3.298;2023-02-15T13:06:31;100124.78;;;15.49
61703;BMP280;47622;47.726;3.298;2023-02-15T13:09:06;100124.59;;;15.45
61703;BMP280;47622;47.726;3.298;2023-02-15T13:11:32;100116.53;;;15.50
61703;BMP280;47622;47.726;3.298;2023-02-15T13:14:29;100116.91;;;15.92
61703;BMP280;47622;47.726;3.298;2023-02-15T13:16:58;100119.19;;;16.11
61703;BMP280;47622;47.726;3.298;2023-02-15T13:19:37;100106.63;;;15.65
61703;BMP280;47622;47.726;3.298;2023-02-15T13:22:15;100106.31;;;15.92
61703;BMP280;47622;47.726;3.298;2023-02-15T13:24:57;100105.38;;;15.97
61703;BMP280;47622;47.726;3.298;2023-02-15T13:27:30;100108.63;;;15.93
61703;BMP280;47622;47.726;3.298;2023-02-15T13:30:02;100115.78;;;16.19
61703;BMP280;47622;47.726;3.298;2023-02-15T13:32:33;100093.47;;;16.20
61703;BMP280;47622;47.726;3.298;2023-02-15T13:35:01;100107.94;;;16.31
61703;BMP280;47622;47.726;3.298;2023-02-15T13:37:49;100102.06;;;16.00
61703;BMP280;47622;47.726;3.298;2023-02-15T13:40:41;100104.66;;;15.30
61703;BMP280;47622;47.726;3.298;2023-02-15T13:43:35;100101.88;;;15.27
61703;BMP280;47622;47.726;3.298;2023-02-15T13:48:44;100091.81;;;15.55
61703;BMP280;47622;47.726;3.298;2023-02-15T14:11:06;100087.94;;;15.04
61703;BMP280;47622;47.726;3.298;2023-02-15T14:22:23;100098.44;;;15.18
61703;BMP280;47622;47.726;3.298;2023-02-15T14:25:05;100090.16;;;14.71
61703;BMP280;47622;47.726;3.298;2023-02-15T14:28:14;100094.31;;;14.63
61703;BMP280;47622;47.726;3.298;2023-02-15T14:30:43;100097.13;;;14.45
61703;BMP280;47622;47.726;3.298;2023-02-15T14:36:02;100087.06;;;14.02
61703;BMP280;47622;47.726;3.298;2023-02-15T14:38:54;100093.88;;;13.94
61703;BMP280;47622;47.726;3.298;2023-02-15T14:44:37;100098.78;;;13.73
61703;BMP280;47622;47.726;3.298;2023-02-15T14:47:21;100098.59;;;13.70
61703;BMP280;47622;47.726;3.298;2023-02-15T14:49:48;100092.34;;;13.66
61703;BMP280;47622;47.726;3.298;2023-02-15T14:52:14;100098.59;;;13.70
61703;BMP280;47622;47.726;3.298;2023-02-15T14:59:53;100097.06;;;13.69
61703;BMP280;47622;47.726;3.298;2023-02-15T15:02:50;100091.78;;;13.69
61703;BMP280;47622;47.726;3.298;2023-02-15T15:05:18;100091.41;;;13.62
61703;BMP280;47622;47.726;3.298;2023-02-15T15:07:52;100103.97;;;13.65
61703;BMP280;47622;47.726;3.298;2023-02-15T15:12:51;100100.78;;;13.40
61703;BMP280;47622;47.726;3.298;2023-02-15T15:21:10;100093.75;;;13.50
61703;BMP280;47622;47.726;3.298;2023-02-15T15:23:42;100090.34;;;13.49
61703;BMP280;47622;47.726;3.298;2023-02-15T15:26:27;100093.78;;;13.36
61703;BMP280;47622;47.726;3.298;2023-02-15T15:28:54;100092.19;;;13.21
61703;BMP280;47622;47.726;3.298;2023-02-15T15:51:06;100103.91;;;12.55
61703;BMP280;47622;47.726;3.298;2023-02-15T15:53:40;100107.84;;;12.53
61703;BMP280;47622;47.726;3.298;2023-02-15T15:56:13;100100.91;;;12.43
61703;BMP280;47622;47.726;3.298;2023-02-15T15:58:43;100103.59;;;12.38
61703;BMP280;47622;47.726;3.298;2023-02-15T16:01:10;100102.13;;;12.32
61703;BMP280;47622;47.726;3.298;2023-02-15T16:03:49;100099.56;;;12.27
61703;BMP280;47622;47.726;3.298;2023-02-15T16:06:27;100096.00;;;12.17
61703;BMP280;47622;47.726;3.298;2023-02-15T16:08:53;100096.66;;;12.09
61703;BMP280;47622;47.726;3.298;2023-02-15T16:11:23;100102.00;;;12.04
61703;BMP280;47622;47.726;3.298;2023-02-15T16:13:50;100098.44;;;11.95
61703;BMP280;47622;47.726;3.298;2023-02-15T16:16:21;100098.00;;;11.88
61703;BMP280;47622;47.726;3.298;2023-02-15T16:18:48;100099.16;;;11.82
61703;BMP280;47622;47.726;3.298;2023-02-15T16:21:19;100103.94;;;11.75
61703;BMP280;47622;47.726;3.298;2023-02-15T16:24:01;100102.53;;;11.64
61703;BMP280;47622;47.726;3.298;2023-02-15T16:29:17;100106.38;;;11.47
61703;BMP280;47622;47.726;3.298;2023-02-15T16:31:57;100107.00;;;11.39
61703;BMP280;47622;47.726;3.298;2023-02-15T16:34:23;100101.84;;;11.29
61703;BMP280;47622;47.726;3.298;2023-02-15T16:36:49;100095.16;;;11.18
61703;BMP280;47622;47.726;3.298;2023-02-15T16:39:20;100095.78;;;11.05
61703;BMP280;47622;47.726;3.298;2023-02-15T16:41:47;100108.72;;;10.96
61703;BMP280;47622;47.726;3.298;2023-02-15T16:44:19;100100.44;;;10.84
61703;BMP280;47622;47.726;3.298;2023-02-15T16:46:49;100103.09;;;10.79
61703;BMP280;47622;47.726;3.298;2023-02-15T16:49:20;100107.13;;;10.71
61703;BMP280;47622;47.726;3.298;2023-02-15T16:52:01;100101.44;;;10.59
61703;BMP280;47622;47.726;3.298;2023-02-15T16:54:28;100096.28;;;10.44
61703;BMP280;47622;47.726;3.298;2023-02-15T16:56:55;100094.78;;;10.32
61703;BMP280;47622;47.726;3.298;2023-02-15T17:02:32;100099.13;;;10.03
61703;BMP280;47622;47.726;3.298;2023-02-15T17:05:11;100112.00;;;9.89
61703;BMP280;47622;47.726;3.298;2023-02-15T17:07:48;100111.28;;;9.79
61703;BMP280;47622;47.726;3.298;2023-02-15T17:12:56;100109.81;;;9.47